Terminal Aerodrome Forecast
Issued by NWS Binghamton, NY

Home | Current Version | Previous Version | Text Only | Print | Product List | Glossary On
Versions: 1 2 3 4 5 6 7 8 9 10 11 12 13 14 15
000
FTUS41 KBGM 240520
TAFSYR
TAF
KSYR 240520Z 2406/2506 20006KT P6SM SKC
     FM241200 24008KT P6SM FEW250
     FM241600 26012G18KT P6SM SCT250
     FM250000 19007KT P6SM SCT150 BKN200=

USA.gov is the U.S. government's official web portal to all federal, state and local government web resources and services.